Time;durP1;ratioP1;P1;durP2;ratioP2;P2;SDS_P1;SDS_P2;PMS_P1;PMS_P2;Temp;Humidity;BMP_temperature;BMP_pressure;BME280_temperature;BME280_humidity;BME280_pressure;Samples;Min_cycle;Max_cycle;Signal;HPM_P1;HPM_P2
2022/03/25 00:01:12;;;;;;;93.93;49.70;;;5.30;99.90;;;;;;5041708;28;20538;-72
2022/03/25 00:03:38;;;;;;;98.40;51.33;;;5.30;99.90;;;;;;5030751;28;20053;-72
2022/03/25 00:06:08;;;;;;;87.10;48.55;;;5.30;99.90;;;;;;5046803;28;20051;-72
2022/03/25 00:08:34;;;;;;;100.20;50.15;;;5.30;99.90;;;;;;5051505;28;20044;-72
2022/03/25 00:11:00;;;;;;;97.47;48.55;;;5.20;99.90;;;;;;5049076;28;20836;-72
2022/03/25 00:13:26;;;;;;;89.65;44.72;;;5.20;99.90;;;;;;5051576;28;20059;-72
2022/03/25 00:15:51;;;;;;;75.95;41.50;;;5.10;99.90;;;;;;5041076;28;20057;-72
2022/03/25 00:18:17;;;;;;;74.05;41.65;;;5.10;99.90;;;;;;5049560;28;20558;-72
2022/03/25 00:20:45;;;;;;;73.53;41.60;;;5.00;99.90;;;;;;5041234;28;20044;-71
2022/03/25 00:23:11;;;;;;;75.65;41.47;;;5.00;99.90;;;;;;5046897;28;20155;-71
2022/03/25 00:25:37;;;;;;;78.00;41.05;;;5.00;99.90;;;;;;5050223;28;20096;-71
2022/03/25 00:28:03;;;;;;;76.15;41.58;;;4.90;99.90;;;;;;5034950;28;20123;-71
2022/03/25 00:30:29;;;;;;;71.28;38.58;;;4.90;99.90;;;;;;5036463;28;20147;-72
2022/03/25 00:32:54;;;;;;;77.72;41.95;;;4.90;99.90;;;;;;5040226;28;20048;-71
2022/03/25 00:35:21;;;;;;;77.88;40.70;;;4.80;99.90;;;;;;5049687;28;20084;-71
2022/03/25 00:37:47;;;;;;;83.00;43.85;;;4.80;99.90;;;;;;5040790;28;20049;-71
2022/03/25 00:40:13;;;;;;;86.30;44.30;;;4.80;99.90;;;;;;5038827;28;20057;-71
2022/03/25 00:42:39;;;;;;;83.05;45.67;;;4.80;99.90;;;;;;5048340;28;20617;-72
2022/03/25 00:45:05;;;;;;;85.68;44.10;;;4.80;99.90;;;;;;5037817;28;20057;-71
2022/03/25 00:47:31;;;;;;;93.15;46.80;;;4.70;99.90;;;;;;5049972;28;20156;-71
2022/03/25 00:49:57;;;;;;;88.90;46.38;;;4.70;99.90;;;;;;5043023;28;20051;-71
2022/03/25 00:52:23;;;;;;;83.25;45.55;;;4.70;99.90;;;;;;5049932;28;20049;-71
2022/03/25 00:54:50;;;;;;;91.75;46.08;;;4.70;99.90;;;;;;5058149;28;20044;-71
2022/03/25 00:57:16;;;;;;;87.57;45.05;;;4.60;99.90;;;;;;5039429;28;20495;-71
2022/03/25 00:59:42;;;;;;;91.35;45.85;;;4.60;99.90;;;;;;5023782;28;20056;-72
2022/03/25 01:02:09;;;;;;;88.75;47.03;;;4.60;99.90;;;;;;5039478;28;20080;-71
2022/03/25 01:04:35;;;;;;;90.53;45.85;;;4.60;99.90;;;;;;5048506;28;20083;-72
2022/03/25 01:07:01;;;;;;;93.55;48.88;;;4.60;99.90;;;;;;5046785;28;20568;-72
2022/03/25 01:09:26;;;;;;;94.40;49.13;;;4.50;99.90;;;;;;5063316;28;20052;-72
2022/03/25 01:11:52;;;;;;;94.97;49.60;;;4.50;99.90;;;;;;5053814;28;20156;-71
2022/03/25 01:14:18;;;;;;;87.40;46.90;;;4.50;99.90;;;;;;5021556;28;20743;-71
2022/03/25 01:16:43;;;;;;;87.85;45.45;;;4.50;99.90;;;;;;5031636;28;20101;-71
2022/03/25 01:19:10;;;;;;;89.90;47.10;;;4.50;99.90;;;;;;5040913;28;20503;-72
2022/03/25 01:21:36;;;;;;;86.03;44.22;;;4.40;99.90;;;;;;5055383;28;20074;-72
2022/03/25 01:24:02;;;;;;;91.60;47.35;;;4.40;99.90;;;;;;5043080;28;20538;-71
2022/03/25 01:26:28;;;;;;;85.25;44.90;;;5.00;99.90;;;;;;5051855;28;20046;-71
2022/03/25 01:28:54;;;;;;;92.95;47.13;;;4.30;99.90;;;;;;5035978;28;20602;-71
2022/03/25 01:31:22;;;;;;;85.47;45.90;;;4.40;99.90;;;;;;5052937;28;20045;-71
2022/03/25 01:33:48;;;;;;;81.18;42.90;;;4.30;99.90;;;;;;5041581;28;20765;-71
2022/03/25 01:36:15;;;;;;;88.95;47.05;;;4.20;99.90;;;;;;5047334;28;20577;-71
2022/03/25 01:38:42;;;;;;;84.90;45.55;;;4.20;99.90;;;;;;5057789;28;20048;-71
2022/03/25 01:41:07;;;;;;;86.07;45.25;;;4.20;99.90;;;;;;5049356;28;20076;-72
2022/03/25 01:43:33;;;;;;;88.47;46.00;;;4.20;99.90;;;;;;5051612;28;20135;-72
2022/03/25 01:45:59;;;;;;;87.15;46.47;;;4.10;99.90;;;;;;5059795;28;20041;-72
2022/03/25 01:48:25;;;;;;;93.78;47.97;;;4.10;99.90;;;;;;5043288;28;20777;-71
2022/03/25 01:50:51;;;;;;;84.88;45.63;;;4.10;99.90;;;;;;5041951;28;20044;-71
2022/03/25 01:53:24;;;;;;;93.93;47.70;;;4.10;99.90;;;;;;5052605;28;20470;-71
2022/03/25 01:55:58;;;;;;;90.55;44.60;;;4.10;99.90;;;;;;5048951;28;20048;-71
2022/03/25 01:58:25;;;;;;;83.60;44.40;;;4.10;99.90;;;;;;5037418;28;20158;-72
2022/03/25 02:00:51;;;;;;;91.15;46.10;;;4.00;99.90;;;;;;5045206;28;20052;-71
2022/03/25 02:03:18;;;;;;;90.13;45.78;;;4.00;99.90;;;;;;5041385;28;20068;-72
2022/03/25 02:05:44;;;;;;;85.28;44.83;;;4.00;99.90;;;;;;5046248;28;20469;-71
2022/03/25 02:08:10;;;;;;;76.82;42.17;;;4.00;99.90;;;;;;5046002;28;20486;-71
2022/03/25 02:10:37;;;;;;;73.15;39.40;;;4.00;99.90;;;;;;5041684;28;20036;-71
2022/03/25 02:13:03;;;;;;;64.05;36.50;;;3.90;99.90;;;;;;5041616;28;20836;-72
2022/03/25 02:15:37;;;;;;;62.13;34.97;;;3.90;99.90;;;;;;5039340;28;20047;-72
2022/03/25 02:18:05;;;;;;;53.70;31.73;;;3.90;99.90;;;;;;5044166;28;20490;-72
2022/03/25 02:20:32;;;;;;;57.40;32.00;;;3.80;99.90;;;;;;5051726;28;20044;-72
2022/03/25 02:22:58;;;;;;;51.92;29.92;;;3.80;99.90;;;;;;5049141;28;20647;-72
2022/03/25 02:25:26;;;;;;;39.70;24.98;;;3.70;99.90;;;;;;5053002;28;20097;-72
2022/03/25 02:27:52;;;;;;;42.30;25.13;;;3.70;99.90;;;;;;5046299;28;20041;-72
2022/03/25 02:30:20;;;;;;;43.72;27.48;;;3.60;99.90;;;;;;5051462;28;20044;-72
2022/03/25 02:32:46;;;;;;;52.03;30.90;;;3.50;99.90;;;;;;5055906;28;20070;-72
2022/03/25 02:35:11;;;;;;;45.90;26.58;;;3.50;99.90;;;;;;5059125;28;20351;-72
2022/03/25 02:37:37;;;;;;;51.58;30.83;;;3.50;99.90;;;;;;5032617;28;20606;-72
2022/03/25 02:40:03;;;;;;;62.28;32.60;;;3.40;99.90;;;;;;5022978;28;20049;-72
2022/03/25 02:42:29;;;;;;;48.10;28.35;;;3.40;99.90;;;;;;5047349;28;20674;-72
2022/03/25 02:44:55;;;;;;;50.50;27.95;;;3.60;99.90;;;;;;5059470;28;20067;-72
2022/03/25 02:47:21;;;;;;;55.90;29.92;;;3.40;99.90;;;;;;5060396;28;20037;-72
2022/03/25 02:49:51;;;;;;;52.28;29.83;;;3.30;99.90;;;;;;5045665;28;20052;-72
2022/03/25 02:52:17;;;;;;;52.75;28.75;;;3.30;99.90;;;;;;5040002;28;20048;-72
2022/03/25 02:54:42;;;;;;;54.78;31.30;;;3.30;99.90;;;;;;5040958;28;20049;-72
2022/03/25 02:57:08;;;;;;;50.78;29.33;;;3.30;99.90;;;;;;5050097;28;20049;-72
2022/03/25 02:59:34;;;;;;;55.75;29.98;;;3.20;99.90;;;;;;5045609;28;20053;-72
2022/03/25 03:02:00;;;;;;;47.97;28.10;;;3.20;99.90;;;;;;5055245;28;20048;-72
2022/03/25 03:04:27;;;;;;;48.15;28.27;;;3.20;99.90;;;;;;5045836;28;20758;-72
2022/03/25 03:06:53;;;;;;;46.63;27.40;;;3.10;99.90;;;;;;5021526;28;20056;-72
2022/03/25 03:09:18;;;;;;;45.92;27.73;;;3.10;99.90;;;;;;5022369;28;20053;-72
2022/03/25 03:11:44;;;;;;;48.35;29.35;;;3.00;99.90;;;;;;5048149;28;20046;-72
2022/03/25 03:14:10;;;;;;;49.10;28.08;;;3.00;99.90;;;;;;5040439;28;20700;-72
2022/03/25 03:16:36;;;;;;;54.88;29.42;;;3.00;99.90;;;;;;5040717;28;20048;-73
2022/03/25 03:19:01;;;;;;;54.30;30.35;;;2.90;99.90;;;;;;5039905;28;20598;-72
2022/03/25 03:21:29;;;;;;;43.38;26.77;;;2.90;99.90;;;;;;5037781;28;20472;-72
2022/03/25 03:23:55;;;;;;;46.03;27.20;;;2.90;99.90;;;;;;5041091;28;20060;-72
2022/03/25 03:26:21;;;;;;;45.88;27.00;;;2.80;99.90;;;;;;5039745;28;20071;-72
2022/03/25 03:28:47;;;;;;;49.60;27.92;;;2.80;99.90;;;;;;5034422;28;20064;-72
2022/03/25 03:31:12;;;;;;;45.38;27.15;;;2.60;99.90;;;;;;5049929;28;20491;-72
2022/03/25 03:33:38;;;;;;;46.30;26.92;;;2.70;99.90;;;;;;5038985;28;20042;-72
2022/03/25 03:36:05;;;;;;;44.45;26.35;;;2.70;99.90;;;;;;5038463;28;20040;-72
2022/03/25 03:38:31;;;;;;;50.85;28.38;;;2.70;99.90;;;;;;5058174;28;20043;-72
2022/03/25 03:40:56;;;;;;;49.08;27.70;;;2.70;99.90;;;;;;5038862;28;20387;-72
2022/03/25 03:43:22;;;;;;;51.42;28.95;;;2.70;99.90;;;;;;5039599;28;20049;-72
2022/03/25 03:45:48;;;;;;;50.38;28.20;;;2.70;99.90;;;;;;5039682;28;20708;-72
2022/03/25 03:48:13;;;;;;;43.58;26.02;;;2.60;99.90;;;;;;5038867;28;20051;-72
2022/03/25 03:50:39;;;;;;;39.95;24.17;;;2.60;99.90;;;;;;5075592;28;20051;-72
2022/03/25 03:53:05;;;;;;;40.95;24.10;;;2.70;99.90;;;;;;5059625;28;20060;-72
2022/03/25 03:55:31;;;;;;;42.00;25.75;;;2.50;99.90;;;;;;5045327;28;20652;-72
2022/03/25 03:57:57;;;;;;;40.10;23.88;;;2.40;99.90;;;;;;5040097;28;20114;-72
2022/03/25 04:00:26;;;;;;;42.28;24.80;;;2.40;99.90;;;;;;5057886;28;20047;-73
2022/03/25 04:02:52;;;;;;;53.97;27.60;;;2.40;99.90;;;;;;5041138;28;20048;-73
2022/03/25 04:05:18;;;;;;;44.90;26.63;;;2.30;99.90;;;;;;5039170;28;20049;-73
2022/03/25 04:07:45;;;;;;;44.97;26.77;;;2.30;99.90;;;;;;5039285;28;20045;-72
2022/03/25 04:10:12;;;;;;;44.45;25.63;;;2.30;99.90;;;;;;5053549;28;20495;-72
2022/03/25 04:12:38;;;;;;;42.35;24.92;;;2.30;99.90;;;;;;5047728;28;20152;-72
2022/03/25 04:15:05;;;;;;;42.33;24.63;;;2.30;99.90;;;;;;5045937;28;20045;-72
2022/03/25 04:17:31;;;;;;;39.03;24.48;;;2.30;99.90;;;;;;5035284;28;20049;-72
2022/03/25 04:19:57;;;;;;;37.67;23.83;;;2.30;99.90;;;;;;5049089;28;20129;-72
2022/03/25 04:22:23;;;;;;;36.80;22.65;;;2.20;99.90;;;;;;5056284;28;20080;-72
2022/03/25 04:24:48;;;;;;;33.70;20.98;;;2.20;99.90;;;;;;5051742;28;20761;-72
2022/03/25 04:27:14;;;;;;;37.13;21.58;;;2.10;99.90;;;;;;5045260;28;20072;-72
2022/03/25 04:29:39;;;;;;;33.13;20.73;;;2.10;99.90;;;;;;5032248;28;20046;-72
2022/03/25 04:32:06;;;;;;;32.63;19.88;;;2.10;99.90;;;;;;5033167;28;20044;-72
2022/03/25 04:34:32;;;;;;;32.65;20.85;;;2.00;99.90;;;;;;5059029;28;20055;-72
2022/03/25 04:36:58;;;;;;;34.42;20.35;;;1.90;99.90;;;;;;5049993;28;20048;-72
2022/03/25 04:39:23;;;;;;;29.67;19.92;;;2.00;99.90;;;;;;5058571;28;20044;-72
2022/03/25 04:41:49;;;;;;;32.67;20.33;;;1.90;99.90;;;;;;5049926;28;20045;-72
2022/03/25 04:44:15;;;;;;;37.08;21.08;;;1.90;99.90;;;;;;5034242;28;20049;-72
2022/03/25 04:46:40;;;;;;;34.78;21.05;;;1.90;99.90;;;;;;5034898;28;20052;-72
2022/03/25 04:49:08;;;;;;;37.95;22.80;;;1.80;99.90;;;;;;5044957;28;20529;-72
2022/03/25 04:51:34;;;;;;;39.20;23.15;;;1.80;99.90;;;;;;5040678;28;20044;-72
2022/03/25 04:53:59;;;;;;;36.30;21.30;;;2.00;99.90;;;;;;5052476;28;20154;-72
2022/03/25 04:56:25;;;;;;;36.97;21.52;;;1.80;99.90;;;;;;5054203;28;20052;-72
2022/03/25 04:58:51;;;;;;;37.92;23.27;;;1.60;99.90;;;;;;5022031;28;20053;-72
2022/03/25 05:01:16;;;;;;;37.72;22.40;;;1.60;99.90;;;;;;5037068;28;20737;-72
2022/03/25 05:03:42;;;;;;;35.33;22.20;;;1.60;99.90;;;;;;5039778;28;20053;-72
2022/03/25 05:06:08;;;;;;;34.47;20.65;;;1.50;99.90;;;;;;5048551;28;20490;-72
2022/03/25 05:08:34;;;;;;;33.85;21.30;;;1.50;99.90;;;;;;5057164;28;20070;-72
2022/03/25 05:10:59;;;;;;;36.42;22.70;;;1.50;99.90;;;;;;5050195;28;20500;-72
2022/03/25 05:13:25;;;;;;;38.90;23.33;;;1.50;99.90;;;;;;5043151;28;20087;-72
2022/03/25 05:15:51;;;;;;;38.65;21.95;;;1.50;99.90;;;;;;5037207;28;20128;-72
2022/03/25 05:18:18;;;;;;;39.65;23.67;;;1.50;99.90;;;;;;5039164;28;20163;-72
2022/03/25 05:20:43;;;;;;;35.95;22.23;;;1.50;99.90;;;;;;5047191;28;20048;-72
2022/03/25 05:23:10;;;;;;;37.65;23.95;;;1.50;99.90;;;;;;5038865;28;20064;-72
2022/03/25 05:25:36;;;;;;;38.60;22.67;;;1.50;99.90;;;;;;5034964;28;20089;-72
2022/03/25 05:28:02;;;;;;;35.72;23.13;;;1.50;99.90;;;;;;5022578;28;20131;-72
2022/03/25 05:30:32;;;;;;;37.90;22.75;;;1.50;99.90;;;;;;5042601;28;20043;-72
2022/03/25 05:33:02;;;;;;;39.47;24.17;;;1.50;99.90;;;;;;5056667;28;20157;-72
2022/03/25 05:35:29;;;;;;;44.55;24.25;;;1.60;99.90;;;;;;5052867;28;20056;-72
2022/03/25 05:37:55;;;;;;;41.30;24.85;;;1.60;99.90;;;;;;5041351;28;20052;-72
2022/03/25 05:40:22;;;;;;;41.97;25.42;;;1.60;99.90;;;;;;5027048;28;20057;-72
2022/03/25 05:42:48;;;;;;;40.42;25.48;;;1.60;99.90;;;;;;5033758;28;20072;-72
2022/03/25 05:45:17;;;;;;;40.72;24.38;;;1.60;99.90;;;;;;5035310;28;20404;-72
2022/03/25 05:47:42;;;;;;;41.20;24.88;;;1.60;99.90;;;;;;5037724;28;20045;-72
2022/03/25 05:50:11;;;;;;;37.80;23.52;;;1.80;99.90;;;;;;5032352;28;20088;-72
2022/03/25 05:52:37;;;;;;;41.92;24.88;;;1.70;99.90;;;;;;5029463;28;20049;-72
2022/03/25 05:55:06;;;;;;;42.95;25.08;;;1.80;99.90;;;;;;5039222;28;20053;-72
2022/03/25 05:57:32;;;;;;;37.20;23.20;;;1.70;99.90;;;;;;5042126;28;20052;-72
2022/03/25 06:00:00;;;;;;;41.35;24.30;;;1.80;99.90;;;;;;5039168;28;20644;-72
2022/03/25 06:02:26;;;;;;;41.90;24.17;;;1.80;99.90;;;;;;5040783;28;20064;-73
2022/03/25 06:04:55;;;;;;;38.70;23.35;;;2.10;99.90;;;;;;5044294;28;20060;-72
2022/03/25 06:07:22;;;;;;;44.42;26.20;;;1.80;99.90;;;;;;5035837;28;20215;-73
2022/03/25 06:09:50;;;;;;;44.72;25.33;;;1.90;99.90;;;;;;5030977;28;20053;-72
2022/03/25 06:12:15;;;;;;;42.97;24.85;;;1.90;99.90;;;;;;5025933;28;20041;-73
2022/03/25 06:14:41;;;;;;;46.70;25.70;;;1.90;99.90;;;;;;5031896;28;20158;-73
2022/03/25 06:17:07;;;;;;;44.80;26.38;;;2.20;99.90;;;;;;5041871;28;20076;-73
2022/03/25 06:19:33;;;;;;;53.55;29.50;;;2.90;99.90;;;;;;5028278;28;20052;-73
2022/03/25 06:21:59;;;;;;;50.60;28.90;;;2.10;99.90;;;;;;5032755;28;20123;-73
2022/03/25 06:24:26;;;;;;;59.75;31.73;;;2.20;99.90;;;;;;5012689;28;20077;-73
2022/03/25 06:26:52;;;;;;;60.92;31.55;;;2.30;99.90;;;;;;5023477;28;20056;-73
2022/03/25 06:29:19;;;;;;;71.57;34.67;;;2.00;99.90;;;;;;5027870;28;20127;-73
2022/03/25 06:31:45;;;;;;;69.25;33.72;;;2.50;99.90;;;;;;5045352;28;20614;-72
2022/03/25 06:34:10;;;;;;;67.43;34.13;;;2.60;99.90;;;;;;5039705;28;20044;-73
2022/03/25 06:36:36;;;;;;;67.45;35.20;;;2.70;99.90;;;;;;5039027;28;20072;-73
2022/03/25 06:39:02;;;;;;;76.80;37.35;;;2.80;99.90;;;;;;5049343;28;20464;-73
2022/03/25 06:41:28;;;;;;;58.75;31.77;;;2.90;99.90;;;;;;5026563;28;20045;-72
2022/03/25 06:43:54;;;;;;;59.75;32.05;;;3.00;99.90;;;;;;5034214;28;20045;-72
2022/03/25 06:46:20;;;;;;;60.30;32.28;;;3.00;99.90;;;;;;5035414;28;20057;-73
2022/03/25 06:48:46;;;;;;;52.00;29.00;;;3.10;99.90;;;;;;5030662;28;20045;-73
2022/03/25 06:51:12;;;;;;;49.38;27.92;;;3.10;99.90;;;;;;5022685;28;20053;-72
2022/03/25 06:53:38;;;;;;;54.28;29.55;;;3.10;99.90;;;;;;5030593;28;20600;-73
2022/03/25 06:56:04;;;;;;;63.60;33.15;;;3.20;99.90;;;;;;5039336;28;20056;-73
2022/03/25 06:58:31;;;;;;;66.35;33.80;;;3.20;99.90;;;;;;5023859;28;20077;-73
2022/03/25 07:00:58;;;;;;;55.22;29.83;;;3.30;99.90;;;;;;5018563;28;20564;-73
2022/03/25 07:03:23;;;;;;;53.35;29.98;;;3.40;99.90;;;;;;5032805;28;20840;-74
2022/03/25 07:05:52;;;;;;;57.63;30.88;;;3.40;99.90;;;;;;5034042;28;20048;-73
2022/03/25 07:08:21;;;;;;;59.20;32.22;;;3.50;99.90;;;;;;5034675;28;20056;-73
2022/03/25 07:10:47;;;;;;;59.78;32.92;;;3.60;99.90;;;;;;5032902;28;20057;-72
2022/03/25 07:13:12;;;;;;;57.40;31.55;;;3.70;99.90;;;;;;5030632;28;20045;-71
2022/03/25 07:15:38;;;;;;;78.97;39.55;;;3.80;99.90;;;;;;5021850;28;20084;-73
2022/03/25 07:18:04;;;;;;;88.90;42.03;;;3.80;99.90;;;;;;5032235;28;20122;-73
2022/03/25 07:20:29;;;;;;;88.10;41.28;;;3.90;99.90;;;;;;5035654;28;20140;-76
2022/03/25 07:22:56;;;;;;;83.25;41.88;;;4.10;99.90;;;;;;5031947;28;20512;-75
2022/03/25 07:25:22;;;;;;;85.53;42.05;;;4.20;99.90;;;;;;5030451;28;20473;-72
2022/03/25 07:27:48;;;;;;;87.20;41.75;;;4.40;99.90;;;;;;5028198;28;20034;-75
2022/03/25 07:30:15;;;;;;;87.43;42.95;;;4.40;99.90;;;;;;5019351;28;20167;-74
2022/03/25 07:32:42;;;;;;;95.55;43.17;;;4.60;99.90;;;;;;5036377;28;20143;-73
2022/03/25 07:35:09;;;;;;;88.45;41.88;;;4.70;99.90;;;;;;5037655;28;20037;-73
2022/03/25 07:37:37;;;;;;;84.38;40.72;;;4.80;99.90;;;;;;5028805;28;20059;-73
2022/03/25 07:40:04;;;;;;;82.25;41.35;;;5.00;99.90;;;;;;5027637;28;20060;-74
2022/03/25 07:42:30;;;;;;;80.57;40.15;;;5.10;99.90;;;;;;5019820;28;20053;-74
2022/03/25 07:44:58;;;;;;;81.38;37.67;;;5.20;99.90;;;;;;5037670;28;20048;-73
2022/03/25 07:47:24;;;;;;;75.85;38.00;;;5.30;99.90;;;;;;5022075;28;20580;-73
2022/03/25 07:49:50;;;;;;;72.85;35.47;;;5.40;99.90;;;;;;5021568;28;20057;-73
2022/03/25 07:52:16;;;;;;;70.55;35.38;;;5.50;99.90;;;;;;5027460;28;20088;-73
2022/03/25 07:54:42;;;;;;;73.35;36.20;;;5.70;99.90;;;;;;5022984;28;20747;-73
2022/03/25 07:57:07;;;;;;;66.35;35.65;;;5.80;99.90;;;;;;5035087;28;20059;-73
2022/03/25 07:59:33;;;;;;;72.45;36.58;;;5.90;99.90;;;;;;5032745;28;20754;-74
2022/03/25 08:01:58;;;;;;;63.65;34.47;;;6.00;99.90;;;;;;5032927;28;20060;-74
2022/03/25 08:04:24;;;;;;;58.83;31.38;;;6.10;99.90;;;;;;5037152;28;20036;-74
2022/03/25 08:06:54;;;;;;;51.95;29.70;;;6.30;99.90;;;;;;5040633;28;20492;-74
2022/03/25 08:09:22;;;;;;;53.03;29.55;;;6.40;99.90;;;;;;5032853;28;20037;-74
2022/03/25 08:11:47;;;;;;;49.28;27.23;;;6.60;99.90;;;;;;5035806;28;20171;-74
2022/03/25 08:14:15;;;;;;;47.10;26.15;;;6.70;99.90;;;;;;5033281;28;20063;-74
2022/03/25 08:16:42;;;;;;;46.70;26.50;;;6.80;99.90;;;;;;5021629;28;20045;-74
2022/03/25 08:19:08;;;;;;;44.00;24.80;;;7.00;99.90;;;;;;5023826;28;20769;-74
2022/03/25 08:21:34;;;;;;;47.45;25.25;;;7.10;99.90;;;;;;5031547;28;20103;-74
2022/03/25 08:29:28;;;;;;;45.83;25.35;;;7.30;99.90;;;;;;5034970;28;20060;-74
2022/03/25 08:31:54;;;;;;;42.42;24.73;;;7.40;99.90;;;;;;5034038;28;20391;-74
2022/03/25 08:34:21;;;;;;;41.03;24.00;;;7.70;99.90;;;;;;5029317;28;20148;-74
2022/03/25 08:36:48;;;;;;;44.92;24.60;;;7.60;99.90;;;;;;5035929;28;20099;-74
2022/03/25 08:39:15;;;;;;;39.05;24.02;;;7.70;99.90;;;;;;5027407;28;20053;-74
2022/03/25 08:41:41;;;;;;;40.88;23.58;;;7.80;99.90;;;;;;5037828;28;20510;-74
2022/03/25 08:44:07;;;;;;;41.03;24.08;;;7.90;99.90;;;;;;5035993;28;20793;-74
2022/03/25 08:46:34;;;;;;;40.88;23.48;;;8.00;99.90;;;;;;5019621;28;20061;-74
2022/03/25 08:49:01;;;;;;;41.70;23.90;;;8.10;99.90;;;;;;5039011;28;20048;-74
2022/03/25 08:51:27;;;;;;;44.05;23.63;;;8.20;99.90;;;;;;5032655;28;20049;-74
2022/03/25 08:53:53;;;;;;;39.13;22.52;;;8.40;99.90;;;;;;5033756;28;20641;-74
2022/03/25 08:56:24;;;;;;;39.55;22.35;;;8.50;99.90;;;;;;5021332;28;20037;-74
2022/03/25 08:58:54;;;;;;;38.85;23.25;;;8.60;99.90;;;;;;5034594;28;20147;-75
2022/03/25 09:01:23;;;;;;;39.83;23.10;;;8.60;99.90;;;;;;5033036;28;20778;-73
2022/03/25 09:03:49;;;;;;;37.67;21.90;;;8.80;99.90;;;;;;5038166;28;20048;-74
2022/03/25 09:06:15;;;;;;;34.38;22.00;;;8.60;99.90;;;;;;5026827;28;20759;-74
2022/03/25 09:08:41;;;;;;;38.75;21.52;;;9.00;99.90;;;;;;5029765;28;20119;-74
2022/03/25 09:11:06;;;;;;;41.60;24.15;;;9.10;99.90;;;;;;5026625;28;20567;-74
2022/03/25 09:13:32;;;;;;;42.88;24.10;;;9.20;99.90;;;;;;5026563;28;20053;-74
2022/03/25 09:15:58;;;;;;;44.03;25.67;;;9.30;99.90;;;;;;5028658;28;20052;-73
2022/03/25 09:18:23;;;;;;;45.08;25.40;;;9.50;99.90;;;;;;5028898;28;20052;-74
2022/03/25 09:20:49;;;;;;;40.97;24.90;;;9.60;99.90;;;;;;5023893;28;20053;-74
2022/03/25 09:23:15;;;;;;;41.53;24.75;;;9.80;99.90;;;;;;5025663;28;20041;-75
2022/03/25 09:25:41;;;;;;;40.53;24.27;;;10.00;99.90;;;;;;5032629;28;20716;-75
2022/03/25 09:28:06;;;;;;;45.55;24.77;;;10.70;99.90;;;;;;5036957;28;20044;-75
2022/03/25 09:30:32;;;;;;;41.95;24.33;;;10.40;99.90;;;;;;5030342;28;20045;-75
2022/03/25 09:32:58;;;;;;;49.40;26.80;;;10.50;99.90;;;;;;5042805;28;20041;-75
2022/03/25 09:35:24;;;;;;;44.30;25.08;;;10.70;99.90;;;;;;5036347;28;20041;-75
2022/03/25 09:37:51;;;;;;;48.92;25.85;;;10.80;99.90;;;;;;5042987;28;20746;-75
2022/03/25 09:40:20;;;;;;;42.95;24.55;;;11.00;99.90;;;;;;5037710;28;20049;-75
2022/03/25 09:42:47;;;;;;;40.65;24.70;;;11.10;99.90;;;;;;5041222;28;20053;-75
2022/03/25 09:45:15;;;;;;;39.08;23.75;;;11.30;99.90;;;;;;5038877;28;20899;-75
2022/03/25 09:47:41;;;;;;;36.00;24.25;;;11.50;99.90;;;;;;5038929;28;20080;-75
2022/03/25 09:50:11;;;;;;;37.72;24.60;;;11.70;99.90;;;;;;5022021;28;20153;-75
2022/03/25 09:52:37;;;;;;;39.72;24.05;;;11.80;99.90;;;;;;5035231;28;20655;-75
2022/03/25 09:55:03;;;;;;;37.25;23.05;;;11.90;99.90;;;;;;5038261;28;20041;-73
2022/03/25 09:57:30;;;;;;;43.22;24.27;;;12.10;99.90;;;;;;5041170;28;20048;-73
2022/03/25 09:59:56;;;;;;;38.63;22.35;;;12.30;99.90;;;;;;5038432;28;20645;-73
2022/03/25 10:02:24;;;;;;;35.42;23.13;;;12.50;99.90;;;;;;5041354;28;20120;-73
2022/03/25 10:04:50;;;;;;;38.53;22.98;;;12.60;99.90;;;;;;5039274;28;20052;-73
2022/03/25 10:07:33;;;;;;;35.00;22.00;;;12.70;99.90;;;;;;5033382;28;20156;-74
2022/03/25 10:10:13;;;;;;;41.70;23.98;;;12.90;99.90;;;;;;5037113;28;20064;-73
2022/03/25 10:12:42;;;;;;;37.28;22.50;;;13.00;98.90;;;;;;5040824;28;20059;-73
2022/03/25 10:15:15;;;;;;;41.85;25.10;;;13.10;99.90;;;;;;5037893;28;20053;-72
2022/03/25 10:17:53;;;;;;;34.88;23.65;;;13.20;99.90;;;;;;5034162;28;20615;-73
2022/03/25 10:20:21;;;;;;;40.63;23.42;;;13.40;99.20;;;;;;5027521;28;20048;-73
2022/03/25 10:23:07;;;;;;;37.60;23.25;;;13.50;99.90;;;;;;5038901;28;20142;-75
2022/03/25 10:25:59;;;;;;;44.70;25.00;;;13.70;98.60;;;;;;5026205;28;20049;-74
2022/03/25 10:28:36;;;;;;;36.60;22.92;;;13.80;99.50;;;;;;5030844;28;20149;-74
2022/03/25 10:31:14;;;;;;;46.05;25.42;;;13.90;98.50;;;;;;5036958;28;20073;-74
2022/03/25 10:33:52;;;;;;;40.45;24.55;;;14.10;98.90;;;;;;5040433;28;20123;-74
2022/03/25 10:36:25;;;;;;;32.45;20.88;;;14.20;96.80;;;;;;5031927;28;20090;-74
2022/03/25 10:38:55;;;;;;;34.22;20.08;;;14.40;97.50;;;;;;5040789;28;20053;-74
2022/03/25 10:41:22;;;;;;;37.45;19.42;;;14.60;95.70;;;;;;5041298;28;20712;-75
2022/03/25 10:44:04;;;;;;;34.22;20.63;;;14.70;94.20;;;;;;5040700;28;20076;-74
2022/03/25 10:46:34;;;;;;;28.83;16.92;;;14.80;93.60;;;;;;5054480;28;20045;-75
2022/03/25 10:49:03;;;;;;;29.88;16.95;;;14.90;93.70;;;;;;5038975;28;20100;-75
2022/03/25 10:51:28;;;;;;;33.17;18.63;;;15.10;91.60;;;;;;5049778;28;20048;-75
2022/03/25 10:54:00;;;;;;;33.65;18.42;;;15.40;91.70;;;;;;5052420;28;20059;-75
2022/03/25 10:56:26;;;;;;;34.97;18.65;;;15.40;79.20;;;;;;5049415;28;20044;-74
2022/03/25 10:58:57;;;;;;;32.97;18.52;;;15.40;84.80;;;;;;5050099;28;20053;-74
2022/03/25 11:01:23;;;;;;;33.38;18.60;;;15.50;84.60;;;;;;5045322;28;20049;-74
2022/03/25 11:03:50;;;;;;;33.58;19.40;;;15.60;85.30;;;;;;5039405;28;20041;-75
2022/03/25 11:06:18;;;;;;;34.00;18.55;;;15.70;85.60;;;;;;5042652;28;20432;-75
2022/03/25 11:08:47;;;;;;;35.40;18.00;;;15.80;83.80;;;;;;5051119;28;20992;-75
2022/03/25 11:11:15;;;;;;;34.17;18.27;;;15.90;84.40;;;;;;5040787;28;20140;-77
2022/03/25 11:13:43;;;;;;;33.95;18.85;;;15.90;81.10;;;;;;5032707;28;20505;-75
2022/03/25 11:16:14;;;;;;;36.25;19.92;;;16.00;81.30;;;;;;5045121;28;20755;-75
2022/03/25 11:18:42;;;;;;;39.05;19.77;;;16.00;77.20;;;;;;5045702;28;20714;-75
2022/03/25 11:21:09;;;;;;;39.17;21.80;;;16.10;78.80;;;;;;5044494;28;20110;-75
2022/03/25 11:23:48;;;;;;;37.13;18.55;;;16.20;78.40;;;;;;5044429;28;20067;-75
2022/03/25 11:26:20;;;;;;;32.08;18.38;;;16.40;74.50;;;;;;5040961;28;20132;-75
2022/03/25 11:28:49;;;;;;;35.75;20.98;;;16.50;77.00;;;;;;5029513;28;20049;-74
2022/03/25 11:31:15;;;;;;;34.60;20.05;;;16.50;73.00;;;;;;5043640;28;20140;-75
2022/03/25 11:34:25;;;;;;;30.63;18.15;;;16.50;74.40;;;;;;5052240;28;20097;-75
2022/03/25 11:37:13;;;;;;;31.63;17.60;;;16.60;74.40;;;;;;5046579;28;20033;-75
2022/03/25 11:39:39;;;;;;;31.45;17.05;;;16.70;74.10;;;;;;5042141;28;20053;-77
2022/03/25 11:42:06;;;;;;;32.42;17.17;;;16.70;76.20;;;;;;5040046;28;20064;-76
2022/03/25 11:44:33;;;;;;;28.95;17.80;;;16.80;74.50;;;;;;5038774;28;20040;-75
2022/03/25 11:47:02;;;;;;;29.80;16.98;;;16.90;74.10;;;;;;5039536;28;20507;-74
2022/03/25 11:49:32;;;;;;;33.67;18.25;;;17.00;71.90;;;;;;5041602;28;20147;-75
2022/03/25 11:52:28;;;;;;;30.40;17.27;;;17.10;72.60;;;;;;5030963;28;20152;-72
2022/03/25 11:54:58;;;;;;;30.73;17.83;;;17.20;70.00;;;;;;5029289;28;20106;-76
2022/03/25 11:57:26;;;;;;;30.42;17.50;;;17.30;71.50;;;;;;5038964;28;20059;-76
2022/03/25 12:00:13;;;;;;;27.10;17.70;;;17.40;71.30;;;;;;5033555;28;20045;-76
2022/03/25 12:02:42;;;;;;;29.38;16.08;;;17.50;70.90;;;;;;5031367;28;20145;-75
2022/03/25 12:05:26;;;;;;;32.70;18.75;;;17.50;71.80;;;;;;5026357;28;20154;-76
2022/03/25 12:08:23;;;;;;;29.75;17.63;;;17.60;67.70;;;;;;5037311;28;20067;-75
2022/03/25 12:10:50;;;;;;;24.98;16.08;;;17.80;67.90;;;;;;5039145;28;20074;-73
2022/03/25 12:13:17;;;;;;;31.75;17.88;;;17.80;68.50;;;;;;5041064;28;20141;-75
2022/03/25 12:15:54;;;;;;;30.98;17.52;;;17.90;68.00;;;;;;5041988;28;20094;-77
2022/03/25 12:18:38;;;;;;;31.65;17.17;;;17.90;66.00;;;;;;5046513;28;20067;-75
2022/03/25 12:21:03;;;;;;;28.85;17.10;;;17.90;64.00;;;;;;5039921;28;20051;-75
2022/03/25 12:23:29;;;;;;;28.67;17.75;;;18.00;65.50;;;;;;5034246;28;20048;-74
2022/03/25 12:25:56;;;;;;;35.85;18.88;;;18.10;64.80;;;;;;5035778;28;20056;-74
2022/03/25 12:28:25;;;;;;;36.40;20.40;;;18.20;64.50;;;;;;5027951;28;20567;-75
2022/03/25 12:30:53;;;;;;;26.08;17.52;;;18.20;64.00;;;;;;5040151;28;20048;-75
2022/03/25 12:33:19;;;;;;;33.17;18.65;;;18.20;64.20;;;;;;5051521;28;20048;-74
2022/03/25 12:35:46;;;;;;;34.00;18.58;;;18.20;60.90;;;;;;5038526;28;20056;-75
2022/03/25 12:38:25;;;;;;;32.20;18.02;;;18.20;62.80;;;;;;5040123;28;20144;-74
2022/03/25 12:40:52;;;;;;;31.08;16.27;;;18.10;58.90;;;;;;5029837;28;20076;-74